sensor_id;sensor_type;location;lat;lon;timestamp;temperature;humidity
46754;DHT22;32500;50.620;3.400;2023-07-02T00:01:40;19.10;76.90
46754;DHT22;32500;50.620;3.400;2023-07-02T00:04:06;19.10;78.10
46754;DHT22;32500;50.620;3.400;2023-07-02T00:06:34;19.00;77.70
46754;DHT22;32500;50.620;3.400;2023-07-02T00:09:09;19.00;78.40
46754;DHT22;32500;50.620;3.400;2023-07-02T00:11:37;19.00;77.00
46754;DHT22;32500;50.620;3.400;2023-07-02T00:14:04;19.00;77.80
46754;DHT22;32500;50.620;3.400;2023-07-02T00:16:30;19.00;78.00
46754;DHT22;32500;50.620;3.400;2023-07-02T00:18:55;19.00;78.70
46754;DHT22;32500;50.620;3.400;2023-07-02T00:21:21;19.00;77.30
46754;DHT22;32500;50.620;3.400;2023-07-02T00:23:47;19.00;77.30
46754;DHT22;32500;50.620;3.400;2023-07-02T00:26:13;19.00;77.50
46754;DHT22;32500;50.620;3.400;2023-07-02T00:28:39;18.90;78.50
46754;DHT22;32500;50.620;3.400;2023-07-02T00:31:04;18.90;77.30
46754;DHT22;32500;50.620;3.400;2023-07-02T00:33:31;18.90;77.40
46754;DHT22;32500;50.620;3.400;2023-07-02T00:35:57;18.90;77.20
46754;DHT22;32500;50.620;3.400;2023-07-02T00:38:23;18.90;77.30
46754;DHT22;32500;50.620;3.400;2023-07-02T00:40:49;18.90;77.10
46754;DHT22;32500;50.620;3.400;2023-07-02T00:43:14;18.90;77.50
46754;DHT22;32500;50.620;3.400;2023-07-02T00:45:40;18.80;77.20
46754;DHT22;32500;50.620;3.400;2023-07-02T00:48:06;18.80;77.30
46754;DHT22;32500;50.620;3.400;2023-07-02T00:50:32;18.80;78.20
46754;DHT22;32500;50.620;3.400;2023-07-02T00:52:58;18.80;77.40
46754;DHT22;32500;50.620;3.400;2023-07-02T00:55:24;18.80;77.70
46754;DHT22;32500;50.620;3.400;2023-07-02T00:57:50;18.80;77.40
46754;DHT22;32500;50.620;3.400;2023-07-02T01:00:15;18.80;77.50
46754;DHT22;32500;50.620;3.400;2023-07-02T01:02:41;18.70;77.30
46754;DHT22;32500;50.620;3.400;2023-07-02T01:05:19;18.70;77.50
46754;DHT22;32500;50.620;3.400;2023-07-02T01:07:46;18.70;78.20
46754;DHT22;32500;50.620;3.400;2023-07-02T01:10:12;18.70;77.90
46754;DHT22;32500;50.620;3.400;2023-07-02T01:12:38;18.70;77.90
46754;DHT22;32500;50.620;3.400;2023-07-02T01:15:05;18.70;77.70
46754;DHT22;32500;50.620;3.400;2023-07-02T01:17:33;18.70;77.60
46754;DHT22;32500;50.620;3.400;2023-07-02T01:20:09;18.70;77.50
46754;DHT22;32500;50.620;3.400;2023-07-02T01:22:35;18.70;78.20
46754;DHT22;32500;50.620;3.400;2023-07-02T01:25:01;18.70;77.90
46754;DHT22;32500;50.620;3.400;2023-07-02T01:27:30;18.60;77.60
46754;DHT22;32500;50.620;3.400;2023-07-02T01:29:56;18.60;78.10
46754;DHT22;32500;50.620;3.400;2023-07-02T01:32:22;18.60;77.90
46754;DHT22;32500;50.620;3.400;2023-07-02T01:34:48;18.60;77.90
46754;DHT22;32500;50.620;3.400;2023-07-02T01:37:17;18.60;78.70
46754;DHT22;32500;50.620;3.400;2023-07-02T01:39:43;18.60;78.00
46754;DHT22;32500;50.620;3.400;2023-07-02T01:42:16;18.60;78.30
46754;DHT22;32500;50.620;3.400;2023-07-02T01:44:43;18.50;78.10
46754;DHT22;32500;50.620;3.400;2023-07-02T01:47:09;18.50;78.10
46754;DHT22;32500;50.620;3.400;2023-07-02T01:49:35;18.50;78.30
46754;DHT22;32500;50.620;3.400;2023-07-02T01:52:01;18.50;81.00
46754;DHT22;32500;50.620;3.400;2023-07-02T01:54:28;18.50;78.20
46754;DHT22;32500;50.620;3.400;2023-07-02T01:56:56;18.50;78.10
46754;DHT22;32500;50.620;3.400;2023-07-02T01:59:21;18.50;78.80
46754;DHT22;32500;50.620;3.400;2023-07-02T02:01:47;18.50;78.50
46754;DHT22;32500;50.620;3.400;2023-07-02T02:04:13;18.40;78.50
46754;DHT22;32500;50.620;3.400;2023-07-02T02:06:39;18.40;78.20
46754;DHT22;32500;50.620;3.400;2023-07-02T02:09:06;18.40;78.70
46754;DHT22;32500;50.620;3.400;2023-07-02T02:11:37;18.40;79.10
46754;DHT22;32500;50.620;3.400;2023-07-02T02:14:03;18.40;78.80
46754;DHT22;32500;50.620;3.400;2023-07-02T02:16:29;18.40;78.90
46754;DHT22;32500;50.620;3.400;2023-07-02T02:18:55;18.40;79.70
46754;DHT22;32500;50.620;3.400;2023-07-02T02:21:21;18.40;79.00
46754;DHT22;32500;50.620;3.400;2023-07-02T02:23:48;18.40;79.70
46754;DHT22;32500;50.620;3.400;2023-07-02T02:26:14;18.40;79.50
46754;DHT22;32500;50.620;3.400;2023-07-02T02:28:40;18.40;79.40
46754;DHT22;32500;50.620;3.400;2023-07-02T02:31:05;18.40;79.40
46754;DHT22;32500;50.620;3.400;2023-07-02T02:33:32;18.30;79.10
46754;DHT22;32500;50.620;3.400;2023-07-02T02:35:58;18.30;81.20
46754;DHT22;32500;50.620;3.400;2023-07-02T02:38:23;18.40;80.60
46754;DHT22;32500;50.620;3.400;2023-07-02T02:40:49;18.30;78.70
46754;DHT22;32500;50.620;3.400;2023-07-02T02:43:15;18.30;79.00
46754;DHT22;32500;50.620;3.400;2023-07-02T02:45:42;18.30;79.30
46754;DHT22;32500;50.620;3.400;2023-07-02T02:48:08;18.30;79.00
46754;DHT22;32500;50.620;3.400;2023-07-02T02:50:33;18.30;78.70
46754;DHT22;32500;50.620;3.400;2023-07-02T02:52:59;18.30;79.20
46754;DHT22;32500;50.620;3.400;2023-07-02T02:55:24;18.30;79.10
46754;DHT22;32500;50.620;3.400;2023-07-02T02:57:51;18.20;78.70
46754;DHT22;32500;50.620;3.400;2023-07-02T03:00:17;18.20;79.30
46754;DHT22;32500;50.620;3.400;2023-07-02T03:02:42;18.20;79.00
46754;DHT22;32500;50.620;3.400;2023-07-02T03:05:08;18.20;78.90
46754;DHT22;32500;50.620;3.400;2023-07-02T03:07:34;18.20;79.10
46754;DHT22;32500;50.620;3.400;2023-07-02T03:10:01;18.20;79.40
46754;DHT22;32500;50.620;3.400;2023-07-02T03:12:26;18.10;80.00
46754;DHT22;32500;50.620;3.400;2023-07-02T03:14:52;18.10;79.50
46754;DHT22;32500;50.620;3.400;2023-07-02T03:17:23;18.10;79.30
46754;DHT22;32500;50.620;3.400;2023-07-02T03:19:49;18.10;81.60
46754;DHT22;32500;50.620;3.400;2023-07-02T03:22:15;18.10;79.90
46754;DHT22;32500;50.620;3.400;2023-07-02T03:24:40;18.10;79.30
46754;DHT22;32500;50.620;3.400;2023-07-02T03:27:06;18.10;80.40
46754;DHT22;32500;50.620;3.400;2023-07-02T03:29:34;18.00;79.70
46754;DHT22;32500;50.620;3.400;2023-07-02T03:31:59;18.00;79.60
46754;DHT22;32500;50.620;3.400;2023-07-02T03:34:25;18.00;80.30
46754;DHT22;32500;50.620;3.400;2023-07-02T03:36:51;18.00;79.20
46754;DHT22;32500;50.620;3.400;2023-07-02T03:39:17;18.00;79.30
46754;DHT22;32500;50.620;3.400;2023-07-02T03:41:43;18.00;79.40
46754;DHT22;32500;50.620;3.400;2023-07-02T03:44:09;18.00;80.30
46754;DHT22;32500;50.620;3.400;2023-07-02T03:46:35;18.00;80.00
46754;DHT22;32500;50.620;3.400;2023-07-02T03:49:02;18.00;79.50
46754;DHT22;32500;50.620;3.400;2023-07-02T03:51:28;17.90;79.70
46754;DHT22;32500;50.620;3.400;2023-07-02T03:53:54;17.90;79.40
46754;DHT22;32500;50.620;3.400;2023-07-02T03:56:20;17.90;80.30
46754;DHT22;32500;50.620;3.400;2023-07-02T03:58:45;17.90;79.40
46754;DHT22;32500;50.620;3.400;2023-07-02T04:01:11;17.90;80.30
46754;DHT22;32500;50.620;3.400;2023-07-02T04:03:37;17.90;79.50
46754;DHT22;32500;50.620;3.400;2023-07-02T04:06:03;17.90;79.40
46754;DHT22;32500;50.620;3.400;2023-07-02T04:08:31;17.90;79.70
46754;DHT22;32500;50.620;3.400;2023-07-02T04:10:57;17.90;80.30
46754;DHT22;32500;50.620;3.400;2023-07-02T04:13:22;17.90;80.30
46754;DHT22;32500;50.620;3.400;2023-07-02T04:15:48;17.90;80.00
46754;DHT22;32500;50.620;3.400;2023-07-02T04:18:14;17.80;80.30
46754;DHT22;32500;50.620;3.400;2023-07-02T04:20:39;17.90;79.40
46754;DHT22;32500;50.620;3.400;2023-07-02T04:23:08;17.90;79.30
46754;DHT22;32500;50.620;3.400;2023-07-02T04:25:33;17.90;79.40
46754;DHT22;32500;50.620;3.400;2023-07-02T04:27:59;17.80;80.20
46754;DHT22;32500;50.620;3.400;2023-07-02T04:30:25;17.90;79.40
46754;DHT22;32500;50.620;3.400;2023-07-02T04:32:51;17.80;79.60
46754;DHT22;32500;50.620;3.400;2023-07-02T04:35:18;17.90;80.20
46754;DHT22;32500;50.620;3.400;2023-07-02T04:37:44;17.90;79.50
46754;DHT22;32500;50.620;3.400;2023-07-02T04:40:10;17.90;79.40
46754;DHT22;32500;50.620;3.400;2023-07-02T04:42:37;17.90;79.30
46754;DHT22;32500;50.620;3.400;2023-07-02T04:45:04;17.90;79.10
46754;DHT22;32500;50.620;3.400;2023-07-02T04:47:30;17.90;78.90
46754;DHT22;32500;50.620;3.400;2023-07-02T04:49:56;17.90;79.00
46754;DHT22;32500;50.620;3.400;2023-07-02T04:52:22;17.90;79.00
46754;DHT22;32500;50.620;3.400;2023-07-02T04:54:48;17.90;79.10
46754;DHT22;32500;50.620;3.400;2023-07-02T04:57:13;18.00;78.80
46754;DHT22;32500;50.620;3.400;2023-07-02T04:59:41;17.90;79.50
46754;DHT22;32500;50.620;3.400;2023-07-02T05:02:06;18.00;79.00
46754;DHT22;32500;50.620;3.400;2023-07-02T05:04:32;18.00;78.90
46754;DHT22;32500;50.620;3.400;2023-07-02T05:06:59;18.00;78.70
46754;DHT22;32500;50.620;3.400;2023-07-02T05:09:24;18.00;79.20
46754;DHT22;32500;50.620;3.400;2023-07-02T05:11:50;18.10;78.40
46754;DHT22;32500;50.620;3.400;2023-07-02T05:14:15;18.10;78.50
46754;DHT22;32500;50.620;3.400;2023-07-02T05:16:41;18.10;78.30
46754;DHT22;32500;50.620;3.400;2023-07-02T05:19:07;18.10;78.90
46754;DHT22;32500;50.620;3.400;2023-07-02T05:21:32;18.10;78.30
46754;DHT22;32500;50.620;3.400;2023-07-02T05:23:58;18.10;78.10
46754;DHT22;32500;50.620;3.400;2023-07-02T05:26:24;18.20;78.40
46754;DHT22;32500;50.620;3.400;2023-07-02T05:28:50;18.20;78.20
46754;DHT22;32500;50.620;3.400;2023-07-02T05:31:15;18.20;77.90
46754;DHT22;32500;50.620;3.400;2023-07-02T05:33:41;18.30;77.90
46754;DHT22;32500;50.620;3.400;2023-07-02T05:36:06;18.30;77.80
46754;DHT22;32500;50.620;3.400;2023-07-02T05:38:32;18.30;77.70
46754;DHT22;32500;50.620;3.400;2023-07-02T05:40:58;18.30;77.70
46754;DHT22;32500;50.620;3.400;2023-07-02T05:43:23;18.30;78.20
46754;DHT22;32500;50.620;3.400;2023-07-02T05:45:50;18.40;77.80
46754;DHT22;32500;50.620;3.400;2023-07-02T05:48:16;18.40;77.40
46754;DHT22;32500;50.620;3.400;2023-07-02T05:50:42;18.40;77.60
46754;DHT22;32500;50.620;3.400;2023-07-02T05:53:07;18.40;77.20
46754;DHT22;32500;50.620;3.400;2023-07-02T05:55:35;18.50;77.50
46754;DHT22;32500;50.620;3.400;2023-07-02T05:58:00;18.50;77.90
46754;DHT22;32500;50.620;3.400;2023-07-02T06:00:28;18.50;77.10
46754;DHT22;32500;50.620;3.400;2023-07-02T06:02:54;18.60;76.90
46754;DHT22;32500;50.620;3.400;2023-07-02T06:05:19;18.60;77.50
46754;DHT22;32500;50.620;3.400;2023-07-02T06:07:45;18.60;77.90
46754;DHT22;32500;50.620;3.400;2023-07-02T06:10:11;18.70;76.70
46754;DHT22;32500;50.620;3.400;2023-07-02T06:12:37;18.70;76.70
46754;DHT22;32500;50.620;3.400;2023-07-02T06:15:03;18.70;77.50
46754;DHT22;32500;50.620;3.400;2023-07-02T06:17:28;18.70;76.40
46754;DHT22;32500;50.620;3.400;2023-07-02T06:19:56;18.80;76.30
46754;DHT22;32500;50.620;3.400;2023-07-02T06:22:22;18.80;76.50
46754;DHT22;32500;50.620;3.400;2023-07-02T06:24:48;18.80;75.90
46754;DHT22;32500;50.620;3.400;2023-07-02T06:27:14;18.90;75.90
46754;DHT22;32500;50.620;3.400;2023-07-02T06:29:40;18.90;76.10
46754;DHT22;32500;50.620;3.400;2023-07-02T06:32:06;19.00;75.90
46754;DHT22;32500;50.620;3.400;2023-07-02T06:34:32;19.00;76.70
46754;DHT22;32500;50.620;3.400;2023-07-02T06:36:57;19.10;75.50
46754;DHT22;32500;50.620;3.400;2023-07-02T06:39:23;19.10;75.60
46754;DHT22;32500;50.620;3.400;2023-07-02T06:41:49;19.10;75.30
46754;DHT22;32500;50.620;3.400;2023-07-02T06:44:14;19.20;75.70
46754;DHT22;32500;50.620;3.400;2023-07-02T06:46:40;19.20;76.10
46754;DHT22;32500;50.620;3.400;2023-07-02T06:49:06;19.20;75.00
46754;DHT22;32500;50.620;3.400;2023-07-02T06:51:32;19.30;75.90
46754;DHT22;32500;50.620;3.400;2023-07-02T06:53:59;19.30;75.00
46754;DHT22;32500;50.620;3.400;2023-07-02T06:56:25;19.40;74.80
46754;DHT22;32500;50.620;3.400;2023-07-02T06:58:50;19.40;74.50
46754;DHT22;32500;50.620;3.400;2023-07-02T07:01:16;19.40;74.70
46754;DHT22;32500;50.620;3.400;2023-07-02T07:03:41;19.50;75.50
46754;DHT22;32500;50.620;3.400;2023-07-02T07:06:07;19.50;75.40
46754;DHT22;32500;50.620;3.400;2023-07-02T07:08:33;19.60;74.40
46754;DHT22;32500;50.620;3.400;2023-07-02T07:10:58;19.60;74.50
46754;DHT22;32500;50.620;3.400;2023-07-02T07:13:24;19.60;75.00
46754;DHT22;32500;50.620;3.400;2023-07-02T07:15:49;19.60;74.40
46754;DHT22;32500;50.620;3.400;2023-07-02T07:18:15;19.60;74.80
46754;DHT22;32500;50.620;3.400;2023-07-02T07:20:42;19.70;74.50
46754;DHT22;32500;50.620;3.400;2023-07-02T07:23:07;19.80;75.10
46754;DHT22;32500;50.620;3.400;2023-07-02T07:25:33;19.80;74.30
46754;DHT22;32500;50.620;3.400;2023-07-02T07:28:01;19.90;74.10
46754;DHT22;32500;50.620;3.400;2023-07-02T07:30:27;19.90;74.30
46754;DHT22;32500;50.620;3.400;2023-07-02T07:32:53;19.90;73.70
46754;DHT22;32500;50.620;3.400;2023-07-02T07:35:20;19.90;73.40
46754;DHT22;32500;50.620;3.400;2023-07-02T07:37:47;20.00;73.30
46754;DHT22;32500;50.620;3.400;2023-07-02T07:40:13;20.10;73.70
46754;DHT22;32500;50.620;3.400;2023-07-02T07:42:38;20.10;72.90
46754;DHT22;32500;50.620;3.400;2023-07-02T07:45:04;20.20;72.60
46754;DHT22;32500;50.620;3.400;2023-07-02T07:47:30;20.20;72.90
46754;DHT22;32500;50.620;3.400;2023-07-02T07:49:56;20.20;73.00
46754;DHT22;32500;50.620;3.400;2023-07-02T07:52:21;20.20;72.90
46754;DHT22;32500;50.620;3.400;2023-07-02T07:54:47;20.20;73.20
46754;DHT22;32500;50.620;3.400;2023-07-02T07:57:14;20.30;72.70
46754;DHT22;32500;50.620;3.400;2023-07-02T07:59:40;20.30;73.30
46754;DHT22;32500;50.620;3.400;2023-07-02T08:02:06;20.30;72.80
46754;DHT22;32500;50.620;3.400;2023-07-02T08:04:32;20.30;72.70
46754;DHT22;32500;50.620;3.400;2023-07-02T08:06:57;20.40;72.60
46754;DHT22;32500;50.620;3.400;2023-07-02T08:09:24;20.40;73.10
46754;DHT22;32500;50.620;3.400;2023-07-02T08:11:50;20.50;73.00
46754;DHT22;32500;50.620;3.400;2023-07-02T08:14:18;20.60;72.80
46754;DHT22;32500;50.620;3.400;2023-07-02T08:16:44;20.60;72.70
46754;DHT22;32500;50.620;3.400;2023-07-02T08:19:10;20.60;72.90
46754;DHT22;32500;50.620;3.400;2023-07-02T08:21:36;20.60;72.30
46754;DHT22;32500;50.620;3.400;2023-07-02T08:24:03;20.60;72.20
46754;DHT22;32500;50.620;3.400;2023-07-02T08:26:29;20.60;72.00
46754;DHT22;32500;50.620;3.400;2023-07-02T08:28:55;20.60;72.80
46754;DHT22;32500;50.620;3.400;2023-07-02T08:31:20;20.70;72.30
46754;DHT22;32500;50.620;3.400;2023-07-02T08:33:46;20.70;71.80
46754;DHT22;32500;50.620;3.400;2023-07-02T08:36:11;20.70;71.40
46754;DHT22;32500;50.620;3.400;2023-07-02T08:38:39;20.80;71.50
46754;DHT22;32500;50.620;3.400;2023-07-02T08:41:07;20.80;71.60
46754;DHT22;32500;50.620;3.400;2023-07-02T08:43:34;20.80;71.30
46754;DHT22;32500;50.620;3.400;2023-07-02T08:46:01;20.80;72.40
46754;DHT22;32500;50.620;3.400;2023-07-02T08:48:27;20.80;72.30
46754;DHT22;32500;50.620;3.400;2023-07-02T08:50:55;20.90;71.50
46754;DHT22;32500;50.620;3.400;2023-07-02T08:53:20;20.90;72.70
46754;DHT22;32500;50.620;3.400;2023-07-02T08:55:50;21.00;71.70
46754;DHT22;32500;50.620;3.400;2023-07-02T08:58:16;21.00;71.60
46754;DHT22;32500;50.620;3.400;2023-07-02T09:01:11;21.00;71.30
46754;DHT22;32500;50.620;3.400;2023-07-02T09:03:38;21.10;71.10
46754;DHT22;32500;50.620;3.400;2023-07-02T09:06:08;21.10;70.90
46754;DHT22;32500;50.620;3.400;2023-07-02T09:08:34;21.10;70.50
46754;DHT22;32500;50.620;3.400;2023-07-02T09:11:11;21.20;71.90
46754;DHT22;32500;50.620;3.400;2023-07-02T09:13:44;21.20;70.90
46754;DHT22;32500;50.620;3.400;2023-07-02T09:18:57;21.40;70.40
46754;DHT22;32500;50.620;3.400;2023-07-02T09:21:25;21.40;69.40
46754;DHT22;32500;50.620;3.400;2023-07-02T09:23:51;21.50;69.90
46754;DHT22;32500;50.620;3.400;2023-07-02T09:26:23;21.50;71.30
46754;DHT22;32500;50.620;3.400;2023-07-02T09:28:49;21.60;70.90
46754;DHT22;32500;50.620;3.400;2023-07-02T09:31:14;21.50;69.50
46754;DHT22;32500;50.620;3.400;2023-07-02T09:33:40;21.60;70.50
46754;DHT22;32500;50.620;3.400;2023-07-02T09:36:06;21.60;70.90
46754;DHT22;32500;50.620;3.400;2023-07-02T09:38:32;21.70;72.70
46754;DHT22;32500;50.620;3.400;2023-07-02T09:40:58;21.80;72.50
46754;DHT22;32500;50.620;3.400;2023-07-02T09:43:24;21.90;70.90
46754;DHT22;32500;50.620;3.400;2023-07-02T09:45:52;22.00;58.30
46754;DHT22;32500;50.620;3.400;2023-07-02T09:48:22;22.10;57.70
46754;DHT22;32500;50.620;3.400;2023-07-02T09:50:50;22.10;57.60
46754;DHT22;32500;50.620;3.400;2023-07-02T09:53:16;22.00;56.90
46754;DHT22;32500;50.620;3.400;2023-07-02T09:55:44;22.00;55.40
46754;DHT22;32500;50.620;3.400;2023-07-02T09:58:10;22.00;56.50
46754;DHT22;32500;50.620;3.400;2023-07-02T10:00:37;21.80;53.40
46754;DHT22;32500;50.620;3.400;2023-07-02T10:03:03;21.60;52.80
46754;DHT22;32500;50.620;3.400;2023-07-02T10:05:30;21.60;53.70
46754;DHT22;32500;50.620;3.400;2023-07-02T10:08:15;21.60;52.60
46754;DHT22;32500;50.620;3.400;2023-07-02T10:10:43;21.70;53.10
46754;DHT22;32500;50.620;3.400;2023-07-02T10:13:08;21.80;54.40
46754;DHT22;32500;50.620;3.400;2023-07-02T10:15:34;21.80;52.80
46754;DHT22;32500;50.620;3.400;2023-07-02T10:18:06;21.80;53.90
46754;DHT22;32500;50.620;3.400;2023-07-02T10:20:37;21.80;54.90
46754;DHT22;32500;50.620;3.400;2023-07-02T10:23:04;21.80;54.70
46754;DHT22;32500;50.620;3.400;2023-07-02T10:25:34;21.90;55.20
46754;DHT22;32500;50.620;3.400;2023-07-02T10:28:17;21.90;53.60
46754;DHT22;32500;50.620;3.400;2023-07-02T10:30:42;22.00;54.60
46754;DHT22;32500;50.620;3.400;2023-07-02T10:33:13;22.00;54.30
46754;DHT22;32500;50.620;3.400;2023-07-02T10:35:39;22.00;53.60
46754;DHT22;32500;50.620;3.400;2023-07-02T10:38:12;22.00;53.90
46754;DHT22;32500;50.620;3.400;2023-07-02T10:40:39;21.80;51.70
46754;DHT22;32500;50.620;3.400;2023-07-02T10:43:05;21.90;53.60
46754;DHT22;32500;50.620;3.400;2023-07-02T10:45:33;21.80;52.60
46754;DHT22;32500;50.620;3.400;2023-07-02T10:48:04;21.90;52.40
46754;DHT22;32500;50.620;3.400;2023-07-02T10:50:31;21.80;52.30
46754;DHT22;32500;50.620;3.400;2023-07-02T10:52:57;21.70;52.50
46754;DHT22;32500;50.620;3.400;2023-07-02T10:55:25;21.60;51.50
46754;DHT22;32500;50.620;3.400;2023-07-02T10:58:05;21.70;52.40
46754;DHT22;32500;50.620;3.400;2023-07-02T11:00:32;21.70;53.00
46754;DHT22;32500;50.620;3.400;2023-07-02T11:02:58;21.70;51.90
46754;DHT22;32500;50.620;3.400;2023-07-02T11:05:23;21.70;51.30
46754;DHT22;32500;50.620;3.400;2023-07-02T11:07:49;21.80;53.00
46754;DHT22;32500;50.620;3.400;2023-07-02T11:10:22;21.90;52.50
46754;DHT22;32500;50.620;3.400;2023-07-02T11:12:48;21.90;51.40
46754;DHT22;32500;50.620;3.400;2023-07-02T11:15:14;21.90;50.60
46754;DHT22;32500;50.620;3.400;2023-07-02T11:17:40;21.90;51.50
46754;DHT22;32500;50.620;3.400;2023-07-02T11:20:11;21.90;51.50
46754;DHT22;32500;50.620;3.400;2023-07-02T11:22:38;21.90;50.30
46754;DHT22;32500;50.620;3.400;2023-07-02T11:25:22;21.90;50.60
46754;DHT22;32500;50.620;3.400;2023-07-02T11:27:47;21.90;49.50
46754;DHT22;32500;50.620;3.400;2023-07-02T11:30:13;21.90;50.60
46754;DHT22;32500;50.620;3.400;2023-07-02T11:32:52;21.90;49.50
46754;DHT22;32500;50.620;3.400;2023-07-02T11:35:19;21.80;51.00
46754;DHT22;32500;50.620;3.400;2023-07-02T11:37:44;21.80;52.30
46754;DHT22;32500;50.620;3.400;2023-07-02T11:40:11;21.90;52.10
46754;DHT22;32500;50.620;3.400;2023-07-02T11:42:37;21.90;51.30
46754;DHT22;32500;50.620;3.400;2023-07-02T11:45:03;21.90;51.60
46754;DHT22;32500;50.620;3.400;2023-07-02T11:47:29;21.90;53.20
46754;DHT22;32500;50.620;3.400;2023-07-02T11:49:54;21.80;50.90
46754;DHT22;32500;50.620;3.400;2023-07-02T11:52:21;21.90;51.20
46754;DHT22;32500;50.620;3.400;2023-07-02T11:54:47;22.00;52.40
46754;DHT22;32500;50.620;3.400;2023-07-02T11:57:12;22.10;51.80
46754;DHT22;32500;50.620;3.400;2023-07-02T11:59:38;22.00;49.60
46754;DHT22;32500;50.620;3.400;2023-07-02T12:02:04;22.00;49.50
46754;DHT22;32500;50.620;3.400;2023-07-02T12:04:29;21.90;50.30
46754;DHT22;32500;50.620;3.400;2023-07-02T12:06:55;21.90;48.90
46754;DHT22;32500;50.620;3.400;2023-07-02T12:09:21;22.00;52.20
46754;DHT22;32500;50.620;3.400;2023-07-02T12:11:46;22.10;51.70
46754;DHT22;32500;50.620;3.400;2023-07-02T12:14:12;22.20;50.70
46754;DHT22;32500;50.620;3.400;2023-07-02T12:16:38;22.20;49.70
46754;DHT22;32500;50.620;3.400;2023-07-02T12:19:03;22.10;49.60
46754;DHT22;32500;50.620;3.400;2023-07-02T12:21:29;22.00;49.10
46754;DHT22;32500;50.620;3.400;2023-07-02T12:23:55;21.90;49.40
46754;DHT22;32500;50.620;3.400;2023-07-02T12:26:20;21.90;50.50
46754;DHT22;32500;50.620;3.400;2023-07-02T12:28:46;21.90;50.10
46754;DHT22;32500;50.620;3.400;2023-07-02T12:31:11;21.90;50.50
46754;DHT22;32500;50.620;3.400;2023-07-02T12:33:38;21.90;48.90
46754;DHT22;32500;50.620;3.400;2023-07-02T12:36:04;22.00;50.30
46754;DHT22;32500;50.620;3.400;2023-07-02T12:38:30;22.00;48.70
46754;DHT22;32500;50.620;3.400;2023-07-02T12:40:56;22.10;50.10
46754;DHT22;32500;50.620;3.400;2023-07-02T12:43:21;22.00;48.60
46754;DHT22;32500;50.620;3.400;2023-07-02T12:45:47;22.10;48.40
46754;DHT22;32500;50.620;3.400;2023-07-02T12:48:13;22.10;49.00
46754;DHT22;32500;50.620;3.400;2023-07-02T12:50:39;22.30;49.60
46754;DHT22;32500;50.620;3.400;2023-07-02T12:53:05;22.30;48.20
46754;DHT22;32500;50.620;3.400;2023-07-02T12:55:31;22.10;47.80
46754;DHT22;32500;50.620;3.400;2023-07-02T12:57:57;22.10;49.40
46754;DHT22;32500;50.620;3.400;2023-07-02T13:00:22;22.10;50.10
46754;DHT22;32500;50.620;3.400;2023-07-02T13:02:48;22.20;49.70
46754;DHT22;32500;50.620;3.400;2023-07-02T13:05:14;22.20;48.80
46754;DHT22;32500;50.620;3.400;2023-07-02T13:07:40;22.20;49.40
46754;DHT22;32500;50.620;3.400;2023-07-02T13:10:06;22.30;49.80
46754;DHT22;32500;50.620;3.400;2023-07-02T13:12:32;22.30;49.30
46754;DHT22;32500;50.620;3.400;2023-07-02T13:14:58;22.40;50.20
46754;DHT22;32500;50.620;3.400;2023-07-02T13:17:24;22.40;49.30
46754;DHT22;32500;50.620;3.400;2023-07-02T13:19:49;22.40;48.70
46754;DHT22;32500;50.620;3.400;2023-07-02T13:22:15;22.40;49.00
46754;DHT22;32500;50.620;3.400;2023-07-02T13:24:41;22.50;49.20
46754;DHT22;32500;50.620;3.400;2023-07-02T13:27:13;22.50;48.00
46754;DHT22;32500;50.620;3.400;2023-07-02T13:29:39;22.60;50.30
46754;DHT22;32500;50.620;3.400;2023-07-02T13:32:05;22.50;49.80
46754;DHT22;32500;50.620;3.400;2023-07-02T13:34:31;22.50;48.70
46754;DHT22;32500;50.620;3.400;2023-07-02T13:36:57;22.60;48.50
46754;DHT22;32500;50.620;3.400;2023-07-02T13:39:22;22.70;47.40
46754;DHT22;32500;50.620;3.400;2023-07-02T13:41:48;22.70;48.20
46754;DHT22;32500;50.620;3.400;2023-07-02T13:44:14;22.60;48.30
46754;DHT22;32500;50.620;3.400;2023-07-02T13:46:42;22.60;48.90
46754;DHT22;32500;50.620;3.400;2023-07-02T13:49:08;22.60;48.20
46754;DHT22;32500;50.620;3.400;2023-07-02T13:51:35;22.60;48.00
46754;DHT22;32500;50.620;3.400;2023-07-02T13:54:01;22.60;48.60
46754;DHT22;32500;50.620;3.400;2023-07-02T13:56:26;22.50;48.00
46754;DHT22;32500;50.620;3.400;2023-07-02T14:01:23;22.60;49.30
46754;DHT22;32500;50.620;3.400;2023-07-02T14:03:49;22.70;48.80
46754;DHT22;32500;50.620;3.400;2023-07-02T14:06:15;22.70;47.10
46754;DHT22;32500;50.620;3.400;2023-07-02T14:08:41;22.70;46.90
46754;DHT22;32500;50.620;3.400;2023-07-02T14:11:08;22.90;48.30
46754;DHT22;32500;50.620;3.400;2023-07-02T14:13:33;22.90;48.50
46754;DHT22;32500;50.620;3.400;2023-07-02T14:15:59;22.90;47.20
46754;DHT22;32500;50.620;3.400;2023-07-02T14:18:25;22.80;46.20
46754;DHT22;32500;50.620;3.400;2023-07-02T14:20:51;22.80;46.50
46754;DHT22;32500;50.620;3.400;2023-07-02T14:23:16;22.80;48.20
46754;DHT22;32500;50.620;3.400;2023-07-02T14:25:42;22.80;46.90
46754;DHT22;32500;50.620;3.400;2023-07-02T14:28:08;22.80;46.20
46754;DHT22;32500;50.620;3.400;2023-07-02T14:30:34;22.80;47.70
46754;DHT22;32500;50.620;3.400;2023-07-02T14:32:59;22.80;46.50
46754;DHT22;32500;50.620;3.400;2023-07-02T14:35:25;22.60;47.60
46754;DHT22;32500;50.620;3.400;2023-07-02T14:37:55;22.60;47.60
46754;DHT22;32500;50.620;3.400;2023-07-02T14:40:20;22.60;46.30
46754;DHT22;32500;50.620;3.400;2023-07-02T14:42:46;22.70;47.70
46754;DHT22;32500;50.620;3.400;2023-07-02T14:45:12;22.60;46.90
46754;DHT22;32500;50.620;3.400;2023-07-02T14:47:38;22.50;48.10
46754;DHT22;32500;50.620;3.400;2023-07-02T14:50:04;22.60;47.50
46754;DHT22;32500;50.620;3.400;2023-07-02T14:52:30;22.70;47.50
46754;DHT22;32500;50.620;3.400;2023-07-02T14:54:56;22.60;47.60
46754;DHT22;32500;50.620;3.400;2023-07-02T14:57:21;22.50;47.80
46754;DHT22;32500;50.620;3.400;2023-07-02T14:59:48;22.50;47.80
46754;DHT22;32500;50.620;3.400;2023-07-02T15:02:15;22.50;47.90
46754;DHT22;32500;50.620;3.400;2023-07-02T15:04:41;22.60;48.30
46754;DHT22;32500;50.620;3.400;2023-07-02T15:07:07;22.60;49.30
46754;DHT22;32500;50.620;3.400;2023-07-02T15:09:33;22.60;48.60
46754;DHT22;32500;50.620;3.400;2023-07-02T15:11:58;22.60;50.20
46754;DHT22;32500;50.620;3.400;2023-07-02T15:14:24;22.60;48.70
46754;DHT22;32500;50.620;3.400;2023-07-02T15:16:50;22.60;48.70
46754;DHT22;32500;50.620;3.400;2023-07-02T15:19:17;22.60;47.90
46754;DHT22;32500;50.620;3.400;2023-07-02T15:21:42;22.60;48.20
46754;DHT22;32500;50.620;3.400;2023-07-02T15:24:08;22.60;48.70
46754;DHT22;32500;50.620;3.400;2023-07-02T15:26:36;22.60;48.80
46754;DHT22;32500;50.620;3.400;2023-07-02T15:29:02;22.60;49.30
46754;DHT22;32500;50.620;3.400;2023-07-02T15:31:28;22.60;49.40